Campti, Texas
Current Conditions -  °F | °C
As of 7:15 PM on Friday 28 Nov 2014 (Local Time) from KOCH Reporting Station
Few Clouds Few Clouds  
Wind Chill: 59°   Ceiling: Unl
Heat Index: 59°   Visibility: 10mi
Dew Point: 52°   Wind: 8mph
Humidity: 77%   Direction: 170°S
Pressure: 30.14"   Gusts: NA
Location:  31.7586°N, 94.1975°W
Report Text: KOCH 290115Z AUTO 17007KT 10SM FEW038 FEW046 15/11 A3014 RMK AO1
Loading
Personal Weather Stations






























Interactive Weather Map New forecast layout! Learn more

10-Day Weather Forecast

Advertisements
Track Severe Weather on mobile